Time;durP1;ratioP1;P1;durP2;ratioP2;P2;SDS_P1;SDS_P2;PMS_P1;PMS_P2;Temp;Humidity;BMP_temperature;BMP_pressure;BME280_temperature;BME280_humidity;BME280_pressure;Samples;Min_cycle;Max_cycle;Signal;HPM_P1;HPM_P2
2023/09/01 00:01:16;;;;;;;25.35;11.18;;;;;;;15.08;100.00;101132.63;5087849;27;20038;-70
2023/09/01 00:04:00;;;;;;;23.30;11.43;;;;;;;15.07;100.00;101129.09;5083616;27;20182;-71
2023/09/01 00:06:27;;;;;;;16.25;10.20;;;;;;;15.03;100.00;101123.09;5088028;27;20040;-69
2023/09/01 00:08:52;;;;;;;16.80;10.35;;;;;;;14.98;100.00;101130.66;5087409;27;20131;-70
2023/09/01 00:11:19;;;;;;;16.55;10.35;;;;;;;14.86;100.00;101134.31;5086593;27;20044;-70
2023/09/01 00:13:51;;;;;;;18.50;9.65;;;;;;;14.94;100.00;101123.81;5084063;27;20051;-70
2023/09/01 00:16:16;;;;;;;18.95;10.25;;;;;;;14.95;100.00;101108.53;5082503;27;20139;-70
2023/09/01 00:18:42;;;;;;;19.48;10.57;;;;;;;15.02;100.00;101107.97;5085805;27;20028;-69
2023/09/01 00:21:07;;;;;;;21.33;10.32;;;;;;;14.90;100.00;101097.31;5081436;27;20509;-70
2023/09/01 00:23:38;;;;;;;17.27;10.32;;;;;;;14.92;100.00;101103.44;5086959;27;20028;-69
2023/09/01 00:26:06;;;;;;;21.23;10.88;;;;;;;14.93;100.00;101107.81;5083450;27;20040;-70
2023/09/01 00:28:31;;;;;;;25.38;9.48;;;;;;;14.98;100.00;101111.84;5071521;28;20076;-69
2023/09/01 00:31:00;;;;;;;16.52;8.18;;;;;;;14.96;100.00;101116.50;5083570;27;20054;-70
2023/09/01 00:33:28;;;;;;;22.13;10.00;;;;;;;14.84;100.00;101122.81;5090192;27;20036;-70
2023/09/01 00:35:55;;;;;;;24.83;9.75;;;;;;;14.87;100.00;101111.84;5069134;28;20036;-70
2023/09/01 00:38:24;;;;;;;30.20;10.48;;;;;;;14.82;100.00;101099.75;5069362;28;20142;-70
2023/09/01 00:40:50;;;;;;;18.48;9.38;;;;;;;14.79;100.00;101102.66;5082801;27;20094;-70
2023/09/01 00:43:17;;;;;;;23.13;9.48;;;;;;;14.87;100.00;101111.84;5069841;28;20044;-70
2023/09/01 00:45:43;;;;;;;21.95;9.30;;;;;;;14.89;100.00;101117.09;5087236;27;20041;-70
2023/09/01 00:48:12;;;;;;;20.00;9.45;;;;;;;14.83;100.00;101107.69;5077263;27;20048;-70
2023/09/01 00:50:38;;;;;;;21.73;9.65;;;;;;;14.65;100.00;101114.44;5064911;27;20085;-70
2023/09/01 00:53:07;;;;;;;22.48;10.00;;;;;;;14.54;100.00;101101.84;5086666;27;20047;-69
2023/09/01 00:55:35;;;;;;;15.68;9.07;;;;;;;14.57;100.00;101098.09;5082680;27;20033;-70
2023/09/01 00:58:02;;;;;;;19.35;9.02;;;;;;;14.50;100.00;101103.88;5085050;28;20032;-70
2023/09/01 01:00:31;;;;;;;20.35;9.57;;;;;;;14.60;100.00;101101.38;5086224;27;20060;-70
2023/09/01 01:02:57;;;;;;;24.83;10.30;;;;;;;14.61;100.00;101104.91;5077862;28;20097;-70
2023/09/01 01:05:31;;;;;;;19.92;9.43;;;;;;;14.64;100.00;101094.81;5062555;28;20052;-70
2023/09/01 01:08:12;;;;;;;19.52;9.68;;;;;;;14.59;100.00;101099.66;5060785;27;20036;-70
2023/09/01 01:10:51;;;;;;;14.55;8.77;;;;;;;14.60;100.00;101104.06;5073782;28;20036;-70
2023/09/01 01:13:21;;;;;;;18.23;9.43;;;;;;;14.61;100.00;101107.59;5082422;27;20036;-70
2023/09/01 01:15:51;;;;;;;23.55;10.13;;;;;;;14.59;100.00;101104.19;5062276;28;20043;-70
2023/09/01 01:18:18;;;;;;;18.35;10.23;;;;;;;14.60;100.00;101112.09;5081813;27;20039;-70
2023/09/01 01:20:48;;;;;;;24.35;9.63;;;;;;;14.57;100.00;101106.13;5086465;27;20071;-69
2023/09/01 01:23:19;;;;;;;17.45;9.77;;;;;;;14.58;100.00;101103.31;5082355;28;20058;-70
2023/09/01 01:25:50;;;;;;;17.77;9.55;;;;;;;14.62;100.00;101096.75;5084653;27;20135;-70
2023/09/01 01:28:24;;;;;;;22.52;9.85;;;;;;;14.63;100.00;101097.59;5071560;27;20136;-69
2023/09/01 01:30:50;;;;;;;23.20;9.77;;;;;;;14.67;100.00;101099.09;5054147;27;20120;-70
2023/09/01 01:33:41;;;;;;;24.95;10.23;;;;;;;14.61;100.00;101107.59;5085155;27;20036;-70
2023/09/01 01:36:35;;;;;;;18.90;9.43;;;;;;;14.54;100.00;101103.66;5076019;27;20047;-70
2023/09/01 01:39:12;;;;;;;16.88;9.98;;;;;;;14.47;100.00;101109.50;5084883;27;20093;-70
2023/09/01 01:41:52;;;;;;;19.80;9.90;;;;;;;14.35;100.00;101118.44;5085419;27;20067;-70
2023/09/01 01:44:22;;;;;;;20.75;10.45;;;;;;;14.27;100.00;101117.31;5087554;27;20036;-70
2023/09/01 01:46:50;;;;;;;21.15;10.35;;;;;;;14.26;100.00;101124.50;5088722;27;20039;-70
2023/09/01 01:49:16;;;;;;;23.35;10.70;;;;;;;14.20;100.00;101120.41;5087462;27;20070;-70
2023/09/01 01:51:46;;;;;;;24.05;10.57;;;;;;;14.16;100.00;101128.84;5078240;28;20033;-70
2023/09/01 01:54:12;;;;;;;17.70;9.82;;;;;;;14.14;100.00;101133.44;5084245;27;20512;-70
2023/09/01 01:56:38;;;;;;;24.60;11.85;;;;;;;14.07;100.00;101130.38;5088388;27;20041;-70
2023/09/01 01:59:07;;;;;;;19.55;9.88;;;;;;;13.94;100.00;101141.13;5077986;27;20530;-70
2023/09/01 02:01:33;;;;;;;24.05;11.13;;;;;;;13.88;100.00;101138.88;5088701;27;20107;-70
2023/09/01 02:04:05;;;;;;;22.33;11.43;;;;;;;13.87;100.00;101136.31;5074359;28;20135;-70
2023/09/01 02:06:31;;;;;;;15.73;10.15;;;;;;;13.86;100.00;101132.78;5088406;28;20044;-70
2023/09/01 02:08:57;;;;;;;19.55;11.20;;;;;;;13.85;100.00;101132.88;5088855;27;20709;-70
2023/09/01 02:11:25;;;;;;;22.70;11.40;;;;;;;13.83;100.00;101134.84;5074705;27;20941;-70
2023/09/01 02:13:51;;;;;;;21.45;12.05;;;;;;;13.76;100.00;101130.91;5071465;27;20131;-70
2023/09/01 02:16:25;;;;;;;24.63;12.73;;;;;;;13.76;100.00;101130.91;5066651;28;20036;-70
2023/09/01 02:18:51;;;;;;;17.88;11.50;;;;;;;13.70;100.00;101134.84;5085336;27;20028;-70
2023/09/01 02:21:21;;;;;;;22.60;12.40;;;;;;;13.69;100.00;101133.13;5089370;27;20032;-70
2023/09/01 02:23:48;;;;;;;19.83;11.73;;;;;;;13.70;100.00;101127.69;5085894;27;20118;-70
2023/09/01 02:26:20;;;;;;;19.15;11.40;;;;;;;13.70;100.00;101129.47;5090661;27;20047;-70
2023/09/01 02:28:49;;;;;;;24.25;13.95;;;;;;;13.71;100.00;101117.81;5052407;27;20105;-70
2023/09/01 02:31:19;;;;;;;19.17;11.73;;;;;;;13.67;100.00;101127.91;5090324;27;20040;-70
2023/09/01 02:33:47;;;;;;;26.02;11.07;;;;;;;13.69;100.00;101130.47;5085725;28;20149;-70
2023/09/01 02:36:26;;;;;;;18.13;11.48;;;;;;;13.60;100.00;101131.09;5073092;28;20151;-69
2023/09/01 02:38:53;;;;;;;18.67;10.65;;;;;;;13.59;100.00;101142.78;5087704;27;20117;-70
2023/09/01 02:41:20;;;;;;;23.60;11.10;;;;;;;13.47;100.00;101136.50;5088282;27;20053;-70
2023/09/01 02:43:49;;;;;;;16.05;9.30;;;;;;;13.40;100.00;101137.88;5089781;27;20036;-70
2023/09/01 02:46:18;;;;;;;17.05;8.95;;;;;;;13.33;100.00;101133.94;5086427;27;20044;-70
2023/09/01 02:48:47;;;;;;;20.70;11.05;;;;;;;13.29;100.00;101145.81;5085680;28;20036;-70
2023/09/01 02:51:22;;;;;;;27.85;12.50;;;;;;;13.28;100.00;101139.59;5090216;27;20032;-69
2023/09/01 02:53:48;;;;;;;25.73;14.18;;;;;;;13.17;100.00;101134.97;5073246;27;20951;-70
2023/09/01 02:56:18;;;;;;;21.83;12.70;;;;;;;13.15;100.00;101131.56;5090461;27;20106;-70
2023/09/01 02:58:46;;;;;;;24.65;13.10;;;;;;;13.14;100.00;101134.31;5051356;28;20040;-70
2023/09/01 03:01:12;;;;;;;16.08;11.60;;;;;;;13.16;100.00;101132.41;5063534;28;20166;-70
2023/09/01 03:03:42;;;;;;;22.13;13.75;;;;;;;13.15;100.00;101128.88;5078927;27;20105;-70
2023/09/01 03:06:08;;;;;;;22.13;13.02;;;;;;;13.17;100.00;101140.31;5089464;27;20044;-69
2023/09/01 03:08:38;;;;;;;30.05;14.68;;;;;;;13.22;100.00;101142.72;5091460;27;20249;-70
2023/09/01 03:11:05;;;;;;;23.00;12.57;;;;;;;13.29;100.00;101140.47;5071592;27;20105;-70
2023/09/01 03:13:31;;;;;;;37.25;15.68;;;;;;;13.38;100.00;101139.81;5078226;27;20297;-69
2023/09/01 03:15:57;;;;;;;23.63;12.95;;;;;;;13.33;100.00;101136.59;5090877;27;20032;-70
2023/09/01 03:18:24;;;;;;;26.40;14.23;;;;;;;13.34;100.00;101132.97;5084716;27;20787;-70
2023/09/01 03:20:52;;;;;;;21.88;13.60;;;;;;;13.32;100.00;101126.88;5085714;28;20466;-70
2023/09/01 03:23:22;;;;;;;23.25;13.05;;;;;;;13.33;100.00;101121.41;5069912;27;20024;-70
2023/09/01 03:25:55;;;;;;;22.75;13.93;;;;;;;13.32;100.00;101121.50;5080378;27;20040;-70
2023/09/01 03:28:22;;;;;;;27.20;15.20;;;;;;;13.29;100.00;101121.72;5076121;27;20400;-70
2023/09/01 03:30:48;;;;;;;22.17;14.32;;;;;;;13.25;100.00;101118.38;5087682;28;20025;-70
2023/09/01 03:33:16;;;;;;;23.48;13.63;;;;;;;13.27;100.00;101129.88;5081526;27;20101;-70
2023/09/01 03:35:43;;;;;;;23.27;13.50;;;;;;;13.23;100.00;101116.78;5064723;28;20871;-70
2023/09/01 03:38:11;;;;;;;24.77;14.20;;;;;;;13.15;100.00;101114.59;5066348;28;20049;-70
2023/09/01 03:40:36;;;;;;;22.58;14.63;;;;;;;13.11;100.00;101113.97;5088219;27;20063;-70
2023/09/01 03:43:02;;;;;;;28.88;13.45;;;;;;;13.08;100.00;101111.50;5055093;28;20028;-69
2023/09/01 03:45:32;;;;;;;28.02;12.85;;;;;;;13.12;100.00;101102.31;5071395;28;20051;-70
2023/09/01 03:47:57;;;;;;;21.00;12.68;;;;;;;13.17;100.00;101105.53;5088974;27;20458;-69
2023/09/01 03:50:23;;;;;;;28.83;13.00;;;;;;;13.16;100.00;101108.31;5085521;27;20553;-69
2023/09/01 03:52:49;;;;;;;25.63;12.60;;;;;;;13.24;100.00;101110.47;5070396;27;20436;-70
2023/09/01 03:55:17;;;;;;;28.20;14.15;;;;;;;13.23;100.00;101108.75;5065778;28;20853;-69
2023/09/01 03:57:44;;;;;;;24.63;14.73;;;;;;;13.28;100.00;101099.44;5088917;27;20528;-69
2023/09/01 04:00:12;;;;;;;25.40;13.25;;;;;;;13.29;100.00;101101.13;5070418;27;20028;-70
2023/09/01 04:02:41;;;;;;;20.67;12.75;;;;;;;13.38;100.00;101105.00;5088727;27;20233;-70
2023/09/01 04:05:07;;;;;;;21.45;12.80;;;;;;;13.46;100.00;101095.47;5070171;28;20587;-70
2023/09/01 04:07:36;;;;;;;26.13;13.45;;;;;;;13.48;100.00;101096.19;5086916;28;20032;-70
2023/09/01 04:10:04;;;;;;;23.85;13.50;;;;;;;13.44;100.00;101083.97;5070941;27;20192;-70
2023/09/01 04:12:30;;;;;;;24.48;13.70;;;;;;;13.48;100.00;101089.97;5064635;27;20064;-70
2023/09/01 04:14:56;;;;;;;18.70;12.70;;;;;;;13.46;100.00;101094.59;5070607;27;20736;-70
2023/09/01 04:17:22;;;;;;;21.10;12.90;;;;;;;13.49;100.00;101091.69;5071117;27;20277;-70
2023/09/01 04:19:47;;;;;;;21.33;12.35;;;;;;;13.55;100.00;101085.03;5070319;28;20028;-70
2023/09/01 04:22:20;;;;;;;23.65;13.23;;;;;;;13.56;100.00;101079.59;5090399;27;20477;-70
2023/09/01 04:24:46;;;;;;;24.90;13.93;;;;;;;13.58;100.00;101084.81;5082257;28;20037;-70
2023/09/01 04:27:11;;;;;;;29.27;14.77;;;;;;;13.62;100.00;101071.09;5089838;27;20063;-71
2023/09/01 04:29:38;;;;;;;25.23;14.65;;;;;;;13.67;100.00;101084.16;5068884;28;20481;-70
2023/09/01 04:32:04;;;;;;;21.52;13.40;;;;;;;13.72;100.00;101087.38;5071133;27;20609;-71
2023/09/01 04:34:30;;;;;;;27.20;13.75;;;;;;;13.80;100.00;101089.47;5087408;27;20083;-71
2023/09/01 04:36:55;;;;;;;24.88;14.32;;;;;;;13.80;100.00;101084.97;5089369;27;20769;-71
2023/09/01 04:39:21;;;;;;;29.38;15.80;;;;;;;13.86;100.00;101087.22;5065663;27;20044;-70
2023/09/01 04:41:47;;;;;;;27.02;15.50;;;;;;;13.86;100.00;101086.38;5083187;27;20548;-70
2023/09/01 04:44:14;;;;;;;28.85;15.65;;;;;;;13.86;100.00;101091.72;5086623;28;20035;-70
2023/09/01 04:46:42;;;;;;;34.17;16.60;;;;;;;13.82;100.00;101091.09;5056777;28;20048;-71
2023/09/01 04:49:08;;;;;;;30.17;17.33;;;;;;;13.94;100.00;101094.69;5084543;27;20131;-70
2023/09/01 04:51:34;;;;;;;26.92;15.00;;;;;;;14.00;100.00;101094.22;5083864;28;20031;-71
2023/09/01 04:54:07;;;;;;;28.42;16.05;;;;;;;14.00;100.00;101095.06;5077288;27;20558;-70
2023/09/01 04:56:32;;;;;;;32.30;16.67;;;;;;;13.78;100.00;101097.63;5084758;27;20153;-70
2023/09/01 04:59:02;;;;;;;25.48;16.13;;;;;;;13.95;100.00;101097.25;5088966;27;20697;-71
2023/09/01 05:01:31;;;;;;;25.30;14.40;;;;;;;14.06;100.00;101096.47;5069365;27;20028;-70
2023/09/01 05:04:00;;;;;;;23.45;14.07;;;;;;;14.11;100.00;101097.00;5075030;27;20057;-70
2023/09/01 05:06:27;;;;;;;27.75;15.50;;;;;;;14.16;100.00;101097.50;5067581;27;20945;-70
2023/09/01 05:08:53;;;;;;;22.80;14.02;;;;;;;14.20;100.00;101095.44;5055583;27;20091;-70
2023/09/01 05:11:18;;;;;;;25.25;13.95;;;;;;;14.15;100.00;101095.78;5067329;27;20036;-70
2023/09/01 05:13:46;;;;;;;20.83;13.65;;;;;;;14.16;100.00;101100.19;5080829;27;20028;-70
2023/09/01 05:16:13;;;;;;;29.25;15.43;;;;;;;14.23;100.00;101097.91;5076200;27;20020;-70
2023/09/01 05:18:38;;;;;;;32.42;15.82;;;;;;;14.23;100.00;101108.63;5071530;27;20113;-70
2023/09/01 05:21:05;;;;;;;27.45;15.75;;;;;;;14.30;100.00;101111.69;5062105;27;20055;-70
2023/09/01 05:23:32;;;;;;;30.02;15.95;;;;;;;14.34;100.00;101108.69;5060899;27;20035;-70
2023/09/01 05:25:58;;;;;;;26.08;15.15;;;;;;;14.39;100.00;101108.34;5071260;28;20132;-70
2023/09/01 05:28:27;;;;;;;23.05;14.38;;;;;;;14.44;100.00;101107.00;5061218;27;20152;-71
2023/09/01 05:30:58;;;;;;;27.88;16.10;;;;;;;14.48;100.00;101116.59;5080278;27;20036;-70
2023/09/01 05:33:25;;;;;;;27.73;16.10;;;;;;;14.56;100.00;101117.81;5084502;27;20035;-70
2023/09/01 05:35:51;;;;;;;26.85;15.38;;;;;;;14.55;100.00;101114.28;5086643;27;20024;-70
2023/09/01 05:38:16;;;;;;;27.70;15.98;;;;;;;14.59;100.00;101112.22;5081768;27;20047;-70
2023/09/01 05:40:42;;;;;;;26.05;16.05;;;;;;;14.64;100.00;101120.78;5071022;27;20622;-70
2023/09/01 05:43:08;;;;;;;21.67;13.73;;;;;;;14.72;100.00;101118.38;5066415;27;20040;-70
2023/09/01 05:45:39;;;;;;;31.58;16.67;;;;;;;14.80;100.00;101115.09;5078424;27;20479;-71
2023/09/01 05:48:06;;;;;;;29.15;15.50;;;;;;;14.68;100.00;101116.91;5064572;28;20642;-70
2023/09/01 05:50:32;;;;;;;21.63;14.38;;;;;;;14.68;100.00;101111.53;5046937;27;20045;-70
2023/09/01 05:53:01;;;;;;;31.65;17.40;;;;;;;14.80;100.00;101107.91;5070089;27;20293;-70
2023/09/01 05:55:29;;;;;;;30.58;16.70;;;;;;;14.77;100.00;101111.69;5068057;27;20028;-70
2023/09/01 05:57:57;;;;;;;26.45;16.17;;;;;;;14.83;100.00;101105.00;5078993;27;20180;-71
2023/09/01 06:00:26;;;;;;;30.63;17.50;;;;;;;14.92;100.00;101114.19;5085127;27;20132;-70
2023/09/01 06:02:52;;;;;;;32.70;17.13;;;;;;;15.04;100.00;101115.88;5083392;27;20579;-70
2023/09/01 06:05:18;;;;;;;27.65;16.48;;;;;;;15.08;100.00;101121.88;5062596;28;20079;-71
2023/09/01 06:07:48;;;;;;;27.75;16.20;;;;;;;15.13;100.00;101114.34;5064235;28;20147;-71
2023/09/01 06:10:19;;;;;;;29.48;16.40;;;;;;;15.20;100.00;101108.34;5069227;28;20029;-70
2023/09/01 06:12:47;;;;;;;24.35;16.05;;;;;;;15.22;100.00;101109.09;5069852;28;20214;-70
2023/09/01 06:15:17;;;;;;;30.02;15.40;;;;;;;15.30;100.00;101116.53;5070242;28;20579;-70
2023/09/01 06:17:43;;;;;;;29.80;14.85;;;;;;;15.36;100.00;101105.31;5069239;28;20143;-69
2023/09/01 06:20:09;;;;;;;35.63;16.38;;;;;;;15.17;100.00;101115.81;5068351;28;20037;-70
2023/09/01 06:22:35;;;;;;;25.98;15.32;;;;;;;15.20;100.00;101111.03;5068814;28;20051;-70
2023/09/01 06:25:03;;;;;;;23.90;14.85;;;;;;;15.36;100.00;101102.63;5070268;28;20875;-70
2023/09/01 06:27:37;;;;;;;26.52;15.48;;;;;;;15.38;100.00;101102.50;5071500;27;20036;-71
2023/09/01 06:30:05;;;;;;;24.33;15.30;;;;;;;15.61;100.00;101097.97;5068604;28;20138;-70
2023/09/01 06:32:32;;;;;;;24.92;15.50;;;;;;;15.64;100.00;101093.22;5066070;28;20037;-70
2023/09/01 06:34:57;;;;;;;29.55;15.43;;;;;;;15.65;100.00;101092.25;5067408;28;20659;-70
2023/09/01 06:37:23;;;;;;;32.10;16.40;;;;;;;16.07;100.00;101095.13;5068220;28;20474;-70
2023/09/01 06:39:48;;;;;;;29.23;16.38;;;;;;;16.30;100.00;101107.50;5067130;28;20064;-70
2023/09/01 06:42:17;;;;;;;34.80;17.48;;;;;;;16.28;100.00;101109.50;5068084;28;20036;-71
2023/09/01 06:44:43;;;;;;;27.70;16.65;;;;;;;16.66;100.00;101101.84;5059604;28;20060;-71
2023/09/01 06:47:11;;;;;;;30.30;17.50;;;;;;;16.87;100.00;101104.59;5065486;27;20037;-70
2023/09/01 06:49:36;;;;;;;30.30;16.23;;;;;;;16.68;100.00;101092.69;5066516;28;20020;-70
2023/09/01 06:52:02;;;;;;;26.15;15.32;;;;;;;16.66;100.00;101091.09;5062181;28;20575;-71
2023/09/01 06:54:27;;;;;;;23.67;14.60;;;;;;;16.60;100.00;101089.78;5066750;28;20037;-70
2023/09/01 06:56:53;;;;;;;31.20;16.15;;;;;;;16.70;100.00;101098.78;5066601;28;20033;-71
2023/09/01 06:59:19;;;;;;;34.88;15.55;;;;;;;16.82;100.00;101088.84;5064543;27;20378;-70
2023/09/01 07:01:48;;;;;;;26.67;16.02;;;;;;;16.86;100.00;101100.19;5068188;28;20478;-71
2023/09/01 07:04:16;;;;;;;24.67;15.13;;;;;;;16.86;100.00;101094.81;5067660;27;20680;-71
2023/09/01 07:06:42;;;;;;;25.92;15.60;;;;;;;17.20;100.00;101090.06;5080374;27;20121;-70
2023/09/01 07:09:07;;;;;;;21.52;14.73;;;;;;;17.62;100.00;101093.50;5082587;27;20094;-70
2023/09/01 07:11:36;;;;;;;28.25;15.27;;;;;;;17.45;100.00;101095.00;5068987;27;20591;-70
2023/09/01 07:14:01;;;;;;;25.13;15.10;;;;;;;17.57;100.00;101098.44;5078804;27;20130;-71
2023/09/01 07:16:27;;;;;;;19.88;14.65;;;;;;;17.38;100.00;101090.28;5087543;27;20269;-71
2023/09/01 07:18:53;;;;;;;22.92;14.18;;;;;;;17.28;100.00;101101.03;5068583;27;20041;-70
2023/09/01 07:21:19;;;;;;;23.45;15.10;;;;;;;17.54;100.00;101093.34;5068463;28;20044;-70
2023/09/01 07:23:47;;;;;;;23.55;14.85;;;;;;;17.69;100.00;101096.50;5086214;27;20131;-71
2023/09/01 07:26:12;;;;;;;23.52;14.27;;;;;;;17.79;100.00;101098.28;5084807;27;20044;-71
2023/09/01 07:28:38;;;;;;;22.20;15.05;;;;;;;17.76;100.00;101103.94;5064262;27;20048;-70
2023/09/01 07:31:12;;;;;;;24.92;15.82;;;;;;;17.65;100.00;101101.31;5081374;27;20157;-71
2023/09/01 07:33:44;;;;;;;30.33;16.15;;;;;;;17.72;100.00;101102.50;5071856;27;20061;-71
2023/09/01 07:36:11;;;;;;;20.27;14.98;;;;;;;17.76;100.00;101087.75;5069204;27;20040;-70
2023/09/01 07:38:38;;;;;;;26.15;15.07;;;;;;;17.79;100.00;101100.13;5074955;27;20040;-71
2023/09/01 07:41:06;;;;;;;22.40;16.08;;;;;;;17.83;100.00;101098.84;5065363;28;20057;-71
2023/09/01 07:43:32;;;;;;;26.55;15.15;;;;;;;17.94;100.00;101097.88;5083021;27;20051;-71
2023/09/01 07:45:58;;;;;;;22.33;14.48;;;;;;;17.97;100.00;101094.88;5082729;27;20858;-71
2023/09/01 07:48:24;;;;;;;24.25;14.45;;;;;;;18.05;100.00;101098.63;5083442;27;20100;-70
2023/09/01 07:50:50;;;;;;;22.38;13.15;;;;;;;18.13;100.00;101095.22;5061726;28;20047;-71
2023/09/01 07:53:17;;;;;;;16.77;12.50;;;;;;;18.16;100.00;101097.63;5085098;27;20040;-70
2023/09/01 07:55:43;;;;;;;20.92;12.65;;;;;;;18.20;100.00;101092.81;5079976;27;20024;-70
2023/09/01 07:58:09;;;;;;;23.02;14.38;;;;;;;18.42;100.00;101097.94;5069784;28;20043;-71
2023/09/01 08:00:37;;;;;;;24.42;13.55;;;;;;;18.43;100.00;101086.16;5084307;27;20071;-70
2023/09/01 08:03:03;;;;;;;23.88;12.65;;;;;;;18.56;100.00;101077.75;5082034;27;20036;-71
2023/09/01 08:05:31;;;;;;;20.50;12.43;;;;;;;18.20;100.00;101084.72;5052052;28;20052;-71
2023/09/01 08:07:57;;;;;;;18.80;12.10;;;;;;;18.55;100.00;101082.31;5083463;27;20032;-71
2023/09/01 08:10:23;;;;;;;23.10;12.55;;;;;;;18.77;100.00;101078.47;5085295;27;20819;-71
2023/09/01 08:12:48;;;;;;;22.08;13.23;;;;;;;18.55;100.00;101079.59;5085449;27;20024;-71
2023/09/01 08:15:15;;;;;;;22.17;13.73;;;;;;;18.38;100.00;101080.34;5082830;28;20039;-71
2023/09/01 08:17:41;;;;;;;24.55;12.93;;;;;;;18.12;100.00;101082.69;5081650;28;20047;-70
2023/09/01 08:20:08;;;;;;;22.42;13.07;;;;;;;18.55;100.00;101082.31;5084221;27;20086;-71
2023/09/01 08:22:36;;;;;;;22.58;13.00;;;;;;;18.44;100.00;101087.84;5085352;27;20039;-71
2023/09/01 08:25:03;;;;;;;20.85;11.88;;;;;;;18.30;100.00;101090.97;5070121;27;20869;-71
2023/09/01 08:27:32;;;;;;;20.58;12.68;;;;;;;18.60;100.00;101087.28;5081506;27;20023;-71
2023/09/01 08:29:57;;;;;;;18.88;13.18;;;;;;;18.80;100.00;101088.16;5078853;27;20032;-70
2023/09/01 08:32:23;;;;;;;21.30;12.55;;;;;;;18.76;100.00;101079.47;5080399;27;20042;-71
2023/09/01 08:34:48;;;;;;;17.08;11.32;;;;;;;18.71;100.00;101089.84;5086734;27;20185;-71
2023/09/01 08:37:19;;;;;;;20.45;12.35;;;;;;;18.65;100.00;101090.41;5081053;27;20036;-71
2023/09/01 08:39:46;;;;;;;17.80;11.98;;;;;;;18.83;100.00;101093.28;5082677;27;20933;-69
2023/09/01 08:42:12;;;;;;;16.33;11.05;;;;;;;18.70;100.00;101090.84;5085614;27;20521;-71
2023/09/01 08:44:41;;;;;;;18.38;9.90;;;;;;;18.60;100.00;101092.69;5078492;27;21063;-71
2023/09/01 08:47:09;;;;;;;16.33;10.57;;;;;;;18.59;100.00;101099.09;5080333;28;20032;-71
2023/09/01 08:49:35;;;;;;;18.63;9.68;;;;;;;18.75;100.00;101099.38;5084668;27;20717;-71
2023/09/01 08:52:02;;;;;;;13.75;9.52;;;;;;;18.71;100.00;101105.22;5081772;28;20044;-71
2023/09/01 08:54:30;;;;;;;16.65;9.68;;;;;;;18.62;100.00;101109.59;5084128;27;20173;-75
2023/09/01 08:56:55;;;;;;;16.05;9.95;;;;;;;18.46;100.00;101110.16;5072221;27;20112;-75
2023/09/01 08:59:21;;;;;;;19.55;10.10;;;;;;;18.28;100.00;101110.03;5063190;27;20120;-75
2023/09/01 13:17:37;;;;;;;62.60;40.40;;;;;;;20.67;100.00;101214.28;5114720;22;20049;-88
2023/09/01 13:20:04;;;;;;;67.07;40.85;;;;;;;20.32;100.00;101215.06;5042110;28;20041;-90
2023/09/01 13:22:31;;;;;;;70.30;46.85;;;;;;;20.14;100.00;101221.31;5024262;28;20882;-89
2023/09/01 13:24:56;;;;;;;66.82;44.95;;;;;;;19.89;100.00;101224.69;5059038;28;20041;-88
2023/09/01 13:27:27;;;;;;;68.97;48.65;;;;;;;20.02;100.00;101224.34;5061059;28;20039;-90
2023/09/01 13:29:55;;;;;;;67.45;45.83;;;;;;;20.19;100.00;101223.56;5073879;28;20052;-89
2023/09/01 13:32:21;;;;;;;68.13;43.05;;;;;;;20.06;100.00;101223.88;5040326;28;20048;-90
2023/09/01 13:34:50;;;;;;;64.07;42.15;;;;;;;20.18;100.00;101221.81;5045214;28;20056;-89
2023/09/01 13:37:16;;;;;;;65.30;42.50;;;;;;;20.44;100.00;101222.00;5055633;28;20064;-91
2023/09/01 13:39:49;;;;;;;64.40;44.05;;;;;;;20.52;100.00;101227.50;5047165;28;20065;-90
2023/09/01 13:42:18;;;;;;;64.07;43.05;;;;;;;20.77;100.00;101222.34;5037255;28;20882;-88
2023/09/01 13:44:44;;;;;;;70.53;45.33;;;;;;;20.65;100.00;101221.75;5071010;28;20036;-87
2023/09/01 13:47:09;;;;;;;63.42;43.50;;;;;;;20.53;100.00;101221.09;5054602;28;20030;-88
2023/09/01 13:49:35;;;;;;;76.18;47.03;;;;;;;20.06;100.00;101223.03;5043702;28;21077;-88
2023/09/01 13:52:00;;;;;;;70.18;46.33;;;;;;;20.14;100.00;101221.31;5037288;28;20698;-89
2023/09/01 13:54:26;;;;;;;72.30;48.03;;;;;;;20.42;100.00;101224.84;5073315;28;20037;-91
2023/09/01 13:56:53;;;;;;;74.82;45.85;;;;;;;19.98;100.00;101222.91;5052792;28;20041;-89
2023/09/01 13:59:18;;;;;;;66.60;44.60;;;;;;;20.08;100.00;101223.72;5047074;28;20041;-89
2023/09/01 14:01:44;;;;;;;67.78;44.15;;;;;;;20.41;100.00;101230.41;5072449;28;20049;-87
2023/09/01 14:04:10;;;;;;;62.25;43.45;;;;;;;20.65;100.00;101233.44;5055877;28;20029;-90
2023/09/01 14:06:36;;;;;;;71.63;45.50;;;;;;;20.38;100.00;101230.69;5055867;28;20040;-90
2023/09/01 14:09:04;;;;;;;72.97;44.50;;;;;;;20.47;100.00;101228.97;5036162;28;20119;-89
2023/09/01 14:11:30;;;;;;;72.88;45.67;;;;;;;20.74;100.00;101236.25;5043430;28;20033;-93
2023/09/01 14:13:56;;;;;;;68.15;43.38;;;;;;;20.89;100.00;101237.41;5038167;28;20029;-92
2023/09/01 14:16:27;;;;;;;75.55;45.17;;;;;;;20.71;100.00;101237.38;5053787;28;20395;-88
2023/09/01 14:18:53;;;;;;;69.28;45.28;;;;;;;20.67;100.00;101247.66;5051291;28;20052;-87
2023/09/01 14:21:25;;;;;;;68.90;45.88;;;;;;;20.65;100.00;101246.13;5057075;28;20044;-88
2023/09/01 14:23:51;;;;;;;74.18;45.92;;;;;;;20.51;100.00;101249.34;5050596;28;20041;-88
2023/09/01 14:26:16;;;;;;;74.35;45.00;;;;;;;20.32;100.00;101244.84;5045649;28;20048;-91
2023/09/01 14:28:45;;;;;;;71.05;45.88;;;;;;;20.36;100.00;101243.56;5030815;28;20096;-91
2023/09/01 14:31:13;;;;;;;69.03;47.15;;;;;;;20.44;100.00;101249.09;5059162;28;20064;-91
2023/09/01 14:33:46;;;;;;;74.07;48.63;;;;;;;20.42;100.00;101248.38;5057030;28;20044;-90
2023/09/01 14:36:12;;;;;;;73.85;48.67;;;;;;;20.44;100.00;101252.66;5060253;28;20041;-91
2023/09/01 14:38:38;;;;;;;70.88;48.05;;;;;;;20.46;100.00;101255.19;5073644;28;20037;-91
2023/09/01 14:41:07;;;;;;;72.47;48.22;;;;;;;20.44;100.00;101254.50;5051249;28;20025;-90
2023/09/01 14:43:35;;;;;;;75.40;49.17;;;;;;;20.37;100.00;101265.06;5043527;28;20037;-91
2023/09/01 14:46:03;;;;;;;71.85;48.55;;;;;;;20.34;100.00;101267.25;5052744;28;20051;-89
2023/09/01 14:48:29;;;;;;;81.60;50.97;;;;;;;20.23;100.00;101260.19;5064261;28;20032;-90
2023/09/01 14:50:55;;;;;;;75.18;51.60;;;;;;;20.31;100.00;101259.41;5051271;28;20039;-87
2023/09/01 14:53:21;;;;;;;83.43;52.25;;;;;;;20.08;100.00;101269.75;5052309;28;20094;-88
2023/09/01 14:55:47;;;;;;;77.55;50.35;;;;;;;20.23;100.00;101272.84;5052669;28;20029;-92
2023/09/01 14:58:16;;;;;;;79.93;51.45;;;;;;;20.35;100.00;101274.38;5062397;28;20769;-91
2023/09/01 15:00:43;;;;;;;79.30;51.78;;;;;;;20.36;100.00;101270.66;5043020;28;20021;-92
2023/09/01 15:03:10;;;;;;;82.88;51.80;;;;;;;20.17;100.00;101271.59;5041354;28;20056;-88
2023/09/01 15:05:39;;;;;;;76.80;51.75;;;;;;;19.99;100.00;101276.94;5041314;28;20052;-91
2023/09/01 15:08:05;;;;;;;77.72;50.60;;;;;;;20.10;100.00;101279.47;5068529;28;20033;-91
2023/09/01 15:10:34;;;;;;;76.05;49.25;;;;;;;20.25;100.00;101282.53;5040263;28;20904;-90
2023/09/01 15:13:26;;;;;;;79.57;50.15;;;;;;;20.35;100.00;101275.22;5059958;28;20041;-92
2023/09/01 15:15:52;;;;;;;76.80;50.13;;;;;;;20.47;100.00;101275.03;5039653;28;20073;-91
2023/09/01 15:18:18;;;;;;;79.93;50.25;;;;;;;20.39;100.00;101276.63;5043528;28;20041;-92
2023/09/01 15:20:45;;;;;;;79.15;51.30;;;;;;;20.37;100.00;101273.19;5055670;28;20040;-88